Forside
METAR-TAF:

METAR-TAF

Lufthavne :

Lagos, Nigeria

Breddekreds: 06-35N, længdekreds: 003-20E, højde: 40 m

Aktuelle vejr

Denne rapport blev lavet for 1 time og 7 minutter siden, kl. 15:00 UTC
Vind 5 kt fra øst
Temperatur 26°C
Fugtighed 84%
Tryk 1012 hPa
Sigt 10 km eller mere
Spredte skyer i en højde af 1000 ft

METAR: DNMM 161500Z 09005KT 9999 SCT010 26/23 Q1012 NOSIG

Tid: 17:07 (16:07 UTC)

Vejrudsigter

Denne rapport blev lavet for 6 timer og 17 minutter siden, kl. 09:50 UTC
Foreløbig gælder fra 16 på 12 UTC til 17 på 18 UTC
Vind 10 kt fra syd
Sigt: 8000 m
Brudte skyer i en højde af 900 ft
Nogle få skyer i en højde af 1900 ft, Cumulonimbus.
Midlertidig
fra 16 på 12 UTC til 16 på 14 UTC
Vind 10 kt fra østnordøst
Sigt: 5000 m
tordenbyger, let regn
ændring
fra 16 på 14 UTC til 16 på 16 UTC
Spredte skyer i en højde af 1000 ft
ændring
fra 16 på 17 UTC til 16 på 19 UTC
Vind 2 kt fra varierende retninger

TAF: DNMM 160950Z 1612/1718 18010KT 8000 BKN009 FEW019CB TEMPO 1612/1614 07010KT 5000 -TSRA BECMG 1614/1616 SCT010 BECMG 1617/1619 VRB02KT

Vejrobservationer og prognoser fra mere end 4000 lufthavne (METAR og TAF).

De gule og røde prikker repræsenterer de meteorologiske stationer.

Flyt musen over at se navnet på stationen.

Så klik over at se vejr observationer og prognoser.

At skifte det kort: Klik på de grønne knapper med et sort kors for at zoome ind; på den grønne knap med en bindestreg for at zoome ud; eller på de grønne pile for tilstødende kort.


METAR-TAF: